<?xml version="1.0" encoding="UTF-8" standalone="no" ?>
<gpx xmlns="http://www.topografix.com/GPX/1/1" xmlns:xsi="http://www.w3.org/2001/XMLSchema-instance" xsi:schemaLocation="http://www.topografix.com/GPX/1/1 http://www.topografix.com/GPX/1/1/gpx.xsd" version="1.1" creator="VisuGPX - https://www.visugpx.com">
  <metadata>
    <name>Argentina</name>
    <desc><![CDATA[Downloaded from eMap Software Version 2.75]]></desc>
  </metadata>
  <trk>
    <name><![CDATA[Argentina_94]]></name>
    <extensions>
      <line xmlns="http://www.topografix.com/GPX/gpx_style/0/2">
        <color>ff0000</color>
        <opacity>0.78</opacity>
        <width>0.6000</width>
      </line>
    </extensions>
    <trkseg>
      <trkpt lat="44.19021" lon="6.91551">
        <ele>1632.936523</ele>
        <time>2008-08-10T12:24:49Z</time>
      </trkpt>
      <trkpt lat="44.19023" lon="6.91551">
        <ele>1632.936523</ele>
        <time>2008-08-10T12:24:52Z</time>
      </trkpt>
      <trkpt lat="44.19015" lon="6.91589">
        <ele>1632.936523</ele>
        <time>2008-08-10T12:25:16Z</time>
      </trkpt>
      <trkpt lat="44.19002" lon="6.91626">
        <ele>1632.456055</ele>
        <time>2008-08-10T12:26:04Z</time>
      </trkpt>
      <trkpt lat="44.19006" lon="6.91686">
        <ele>1632.456055</ele>
        <time>2008-08-10T12:26:32Z</time>
      </trkpt>
      <trkpt lat="44.18995" lon="6.91729">
        <ele>1631.01416</ele>
        <time>2008-08-10T12:26:55Z</time>
      </trkpt>
      <trkpt lat="44.18991" lon="6.91787">
        <ele>1630.533447</ele>
        <time>2008-08-10T12:27:25Z</time>
      </trkpt>
      <trkpt lat="44.18999" lon="6.91828">
        <ele>1629.572021</ele>
        <time>2008-08-10T12:27:49Z</time>
      </trkpt>
      <trkpt lat="44.1903" lon="6.91922">
        <ele>1629.572021</ele>
        <time>2008-08-10T12:28:41Z</time>
      </trkpt>
      <trkpt lat="44.1906" lon="6.91928">
        <ele>1629.572021</ele>
        <time>2008-08-10T12:28:58Z</time>
      </trkpt>
      <trkpt lat="44.19062" lon="6.91933">
        <ele>1629.572021</ele>
        <time>2008-08-10T12:29:02Z</time>
      </trkpt>
      <trkpt lat="44.19032" lon="6.91958">
        <ele>1627.168701</ele>
        <time>2008-08-10T12:29:17Z</time>
      </trkpt>
      <trkpt lat="44.18991" lon="6.91978">
        <ele>1627.168701</ele>
        <time>2008-08-10T12:29:48Z</time>
      </trkpt>
      <trkpt lat="44.18972" lon="6.91997">
        <ele>1626.687988</ele>
        <time>2008-08-10T12:30:04Z</time>
      </trkpt>
      <trkpt lat="44.1895" lon="6.92006">
        <ele>1622.362061</ele>
        <time>2008-08-10T12:30:26Z</time>
      </trkpt>
      <trkpt lat="44.18942" lon="6.92006">
        <ele>1621.881348</ele>
        <time>2008-08-10T12:30:35Z</time>
      </trkpt>
      <trkpt lat="44.18912" lon="6.92016">
        <ele>1620.920166</ele>
        <time>2008-08-10T12:31:11Z</time>
      </trkpt>
      <trkpt lat="44.18899" lon="6.92008">
        <ele>1617.074951</ele>
        <time>2008-08-10T12:31:34Z</time>
      </trkpt>
      <trkpt lat="44.18884" lon="6.92038">
        <ele>1617.074951</ele>
        <time>2008-08-10T12:32:38Z</time>
      </trkpt>
      <trkpt lat="44.18896" lon="6.92083">
        <ele>1615.152344</ele>
        <time>2008-08-10T12:33:11Z</time>
      </trkpt>
      <trkpt lat="44.18909" lon="6.92098">
        <ele>1612.268311</ele>
        <time>2008-08-10T12:33:29Z</time>
      </trkpt>
      <trkpt lat="44.18946" lon="6.92119">
        <ele>1611.306885</ele>
        <time>2008-08-10T12:34:11Z</time>
      </trkpt>
      <trkpt lat="44.18937" lon="6.92113">
        <ele>1611.306885</ele>
        <time>2008-08-10T12:34:38Z</time>
      </trkpt>
      <trkpt lat="44.18916" lon="6.92128">
        <ele>1611.306885</ele>
        <time>2008-08-10T12:35:36Z</time>
      </trkpt>
    </trkseg>
  </trk>
</gpx>